Time;durP1;ratioP1;P1;durP2;ratioP2;P2;SDS_P1;SDS_P2;PMS_P1;PMS_P2;Temp;Humidity;BMP_temperature;BMP_pressure;BME280_temperature;BME280_humidity;BME280_pressure;Samples;Min_cycle;Max_cycle;Signal;HPM_P1;HPM_P2
2022/07/16 00:02:45;;;;;;;8.13;2.15;;;22.20;39.40;;;;;;5019535;28;20125;-77
2022/07/16 00:05:11;;;;;;;4.25;1.80;;;22.10;39.60;;;;;;5020535;28;20029;-76
2022/07/16 00:07:38;;;;;;;7.97;1.88;;;22.10;39.80;;;;;;5010028;28;20575;-75
2022/07/16 00:10:13;;;;;;;5.45;2.08;;;22.00;39.90;;;;;;5025961;28;20484;-76
2022/07/16 00:12:40;;;;;;;6.60;1.90;;;21.90;41.00;;;;;;5013446;28;20029;-75
2022/07/16 00:15:06;;;;;;;7.38;1.90;;;21.90;40.20;;;;;;5022385;28;20036;-75
2022/07/16 00:17:32;;;;;;;5.78;2.20;;;21.90;40.50;;;;;;5020634;28;20030;-75
2022/07/16 00:19:57;;;;;;;9.38;2.17;;;21.90;40.50;;;;;;5027554;28;20373;-74
2022/07/16 00:22:23;;;;;;;6.05;1.90;;;21.80;40.50;;;;;;5018115;28;20029;-75
2022/07/16 00:24:49;;;;;;;8.50;2.00;;;21.80;40.50;;;;;;5035371;28;20578;-75
2022/07/16 00:27:15;;;;;;;5.35;1.65;;;21.80;40.60;;;;;;5024946;28;20033;-75
2022/07/16 00:29:41;;;;;;;6.28;2.03;;;21.80;40.70;;;;;;5016740;28;20061;-75
2022/07/16 00:32:06;;;;;;;9.07;2.00;;;21.70;40.90;;;;;;5018854;28;20140;-75
2022/07/16 00:34:33;;;;;;;9.35;1.83;;;21.70;41.00;;;;;;5026232;28;20559;-75
2022/07/16 00:36:59;;;;;;;5.32;1.65;;;21.60;41.10;;;;;;5026699;28;20024;-75
2022/07/16 00:39:25;;;;;;;4.65;1.75;;;21.60;41.10;;;;;;5037537;28;20068;-75
2022/07/16 00:41:50;;;;;;;5.35;1.85;;;21.50;41.10;;;;;;5032210;28;20106;-75
2022/07/16 00:44:18;;;;;;;6.38;1.80;;;21.50;41.20;;;;;;5033801;28;20526;-75
2022/07/16 00:46:46;;;;;;;7.88;2.13;;;21.50;41.20;;;;;;5029086;28;20033;-75
2022/07/16 00:49:13;;;;;;;9.20;1.90;;;21.40;41.30;;;;;;5034795;28;20053;-75
2022/07/16 00:51:46;;;;;;;7.20;2.10;;;21.40;41.40;;;;;;5017439;28;20566;-74
2022/07/16 00:54:12;;;;;;;8.07;2.03;;;21.40;41.50;;;;;;5029988;28;20037;-75
2022/07/16 00:56:38;;;;;;;8.02;1.90;;;21.40;41.50;;;;;;5031230;28;20369;-75
2022/07/16 00:59:05;;;;;;;5.00;2.10;;;21.30;41.50;;;;;;5028665;28;20029;-75
2022/07/16 01:01:30;;;;;;;5.53;1.80;;;21.30;41.60;;;;;;5023845;28;20058;-75
2022/07/16 01:03:56;;;;;;;4.25;1.70;;;21.30;41.70;;;;;;5035899;28;20037;-75
2022/07/16 01:06:25;;;;;;;7.72;1.95;;;21.30;41.70;;;;;;5024392;28;20040;-75
2022/07/16 01:08:51;;;;;;;5.15;1.60;;;21.30;41.60;;;;;;5021341;28;20038;-74
2022/07/16 01:11:19;;;;;;;6.38;1.83;;;21.30;41.80;;;;;;5027740;28;20197;-75
2022/07/16 01:13:47;;;;;;;5.75;1.80;;;21.30;41.60;;;;;;5022228;28;20120;-75
2022/07/16 01:16:13;;;;;;;5.85;1.70;;;21.30;41.60;;;;;;5018219;28;20040;-75
2022/07/16 01:18:41;;;;;;;4.95;1.70;;;21.20;41.70;;;;;;5031512;28;20034;-74
2022/07/16 01:21:08;;;;;;;5.38;1.75;;;21.30;41.80;;;;;;5022141;28;20358;-75
2022/07/16 01:23:34;;;;;;;8.85;1.85;;;21.30;41.60;;;;;;5022466;28;20026;-75
2022/07/16 01:25:59;;;;;;;6.30;2.00;;;21.30;41.80;;;;;;5018809;28;20021;-74
2022/07/16 01:28:25;;;;;;;6.55;1.80;;;21.30;41.70;;;;;;5016084;28;20574;-75
2022/07/16 01:30:51;;;;;;;5.00;2.05;;;21.30;42.10;;;;;;5027050;28;20087;-75
2022/07/16 01:33:31;;;;;;;4.32;1.60;;;21.30;41.80;;;;;;5024132;28;20041;-75
2022/07/16 01:35:58;;;;;;;;;;;21.30;41.90;;;;;;5028489;28;20030;-75
2022/07/16 01:38:25;;;;;;;8.50;2.00;;;21.30;41.80;;;;;;5027288;28;19909;-75
2022/07/16 01:40:51;;;;;;;5.75;1.70;;;21.20;41.80;;;;;;5029291;28;20056;-75
2022/07/16 01:43:23;;;;;;;5.65;1.77;;;21.20;41.80;;;;;;5035194;28;20033;-75
2022/07/16 01:45:49;;;;;;;5.32;1.80;;;21.20;41.90;;;;;;5026639;28;20023;-75
2022/07/16 01:48:15;;;;;;;4.20;1.70;;;21.20;41.90;;;;;;5022553;28;20412;-74
2022/07/16 01:50:42;;;;;;;7.47;2.13;;;21.20;41.90;;;;;;5032205;28;20087;-74
2022/07/16 01:53:09;;;;;;;8.30;1.92;;;21.10;42.00;;;;;;5026067;28;20036;-75
2022/07/16 01:55:35;;;;;;;6.28;1.80;;;21.00;42.10;;;;;;5024251;28;20119;-74
2022/07/16 01:58:03;;;;;;;6.32;2.05;;;21.00;42.10;;;;;;5031462;28;20029;-74
2022/07/16 02:00:29;;;;;;;6.03;1.75;;;21.00;42.20;;;;;;5029829;28;20068;-74
2022/07/16 02:02:55;;;;;;;4.72;1.80;;;21.00;42.40;;;;;;5033958;28;20060;-74
2022/07/16 02:05:20;;;;;;;6.55;1.95;;;20.90;42.40;;;;;;5031882;28;20033;-75
2022/07/16 02:07:46;;;;;;;4.25;1.90;;;20.90;42.20;;;;;;5026837;28;20017;-74
2022/07/16 02:10:12;;;;;;;3.92;1.60;;;20.90;42.30;;;;;;5029333;28;26421;-74
2022/07/16 02:12:37;;;;;;;5.05;1.73;;;20.40;42.00;;;;;;5027706;28;20400;-74
2022/07/16 02:15:05;;;;;;;6.28;1.75;;;20.90;42.30;;;;;;5022762;28;20093;-74
2022/07/16 02:17:30;;;;;;;7.43;1.75;;;20.90;42.40;;;;;;5024353;28;20037;-75
2022/07/16 02:19:56;;;;;;;3.60;1.67;;;20.90;42.40;;;;;;5033363;28;20108;-75
2022/07/16 02:22:22;;;;;;;7.75;1.75;;;20.90;42.40;;;;;;5019170;28;20026;-74
2022/07/16 02:24:47;;;;;;;6.25;1.85;;;20.90;42.50;;;;;;5025410;28;20080;-74
2022/07/16 02:27:13;;;;;;;5.47;1.70;;;20.80;42.60;;;;;;5028194;28;20030;-75
2022/07/16 02:29:39;;;;;;;5.13;1.60;;;20.80;42.60;;;;;;5027549;28;20037;-74
2022/07/16 02:32:05;;;;;;;6.18;2.00;;;20.80;42.70;;;;;;5020385;28;20061;-74
2022/07/16 02:34:30;;;;;;;4.40;1.60;;;20.70;42.80;;;;;;5019778;28;20045;-74
2022/07/16 02:36:56;;;;;;;4.50;1.70;;;20.70;43.00;;;;;;5033488;28;20502;-74
2022/07/16 02:39:22;;;;;;;5.43;1.70;;;20.70;43.00;;;;;;5020677;28;20040;-74
2022/07/16 02:41:48;;;;;;;8.05;2.05;;;20.70;43.20;;;;;;5030758;28;20029;-75
2022/07/16 02:44:13;;;;;;;6.25;1.90;;;20.60;43.30;;;;;;5030666;28;20095;-75
2022/07/16 02:46:39;;;;;;;3.50;1.60;;;20.60;43.40;;;;;;5024393;28;20486;-74
2022/07/16 02:49:05;;;;;;;5.20;1.70;;;20.60;43.40;;;;;;5031886;28;20131;-75
2022/07/16 02:51:31;;;;;;;5.22;1.92;;;20.60;43.50;;;;;;5017813;28;20557;-75
2022/07/16 02:53:56;;;;;;;8.77;1.92;;;20.50;43.50;;;;;;5030719;28;20058;-74
2022/07/16 02:56:22;;;;;;;5.70;1.92;;;20.60;43.50;;;;;;5030124;28;20023;-74
2022/07/16 02:58:48;;;;;;;4.82;2.00;;;20.50;43.50;;;;;;5021036;28;20069;-74
2022/07/16 03:01:14;;;;;;;5.00;1.70;;;20.50;43.70;;;;;;5027208;28;20022;-74
2022/07/16 03:03:39;;;;;;;5.03;1.80;;;20.50;43.90;;;;;;5024498;28;20035;-74
2022/07/16 03:06:06;;;;;;;5.05;1.70;;;20.50;44.20;;;;;;5026830;28;20029;-74
2022/07/16 03:08:32;;;;;;;8.80;1.65;;;20.50;44.30;;;;;;5021060;28;20037;-75
2022/07/16 03:10:57;;;;;;;7.03;1.80;;;20.40;44.30;;;;;;5024005;28;20030;-74
2022/07/16 03:13:23;;;;;;;5.65;1.70;;;20.40;44.50;;;;;;5038200;28;20038;-74
2022/07/16 03:15:49;;;;;;;4.95;1.88;;;20.30;44.60;;;;;;5017967;28;20030;-74
2022/07/16 03:18:15;;;;;;;7.05;2.00;;;20.30;44.80;;;;;;5028921;28;20036;-74
2022/07/16 03:20:40;;;;;;;4.20;1.88;;;20.30;45.10;;;;;;5032169;28;20079;-75
2022/07/16 03:23:06;;;;;;;5.03;1.77;;;20.30;45.30;;;;;;5034066;28;20116;-74
2022/07/16 03:25:32;;;;;;;6.15;1.80;;;20.20;45.50;;;;;;5018295;28;20088;-74
2022/07/16 03:27:58;;;;;;;5.63;1.83;;;20.20;45.70;;;;;;5019418;28;20461;-74
2022/07/16 03:30:23;;;;;;;5.72;1.83;;;20.20;45.90;;;;;;5024919;28;20033;-74
2022/07/16 03:32:49;;;;;;;6.07;1.80;;;20.20;46.00;;;;;;5028380;28;20029;-74
2022/07/16 03:35:15;;;;;;;4.97;1.85;;;20.10;46.00;;;;;;5033734;28;20188;-74
2022/07/16 03:40:26;;;;;;;5.68;1.73;;;20.00;46.30;;;;;;5019191;28;20083;-74
2022/07/16 03:42:52;;;;;;;6.63;1.70;;;20.00;46.30;;;;;;5017149;28;20036;-74
2022/07/16 03:45:18;;;;;;;3.95;1.67;;;20.00;46.50;;;;;;5018523;28;20022;-74
2022/07/16 03:47:44;;;;;;;5.03;1.77;;;19.90;46.70;;;;;;5023412;28;20044;-73
2022/07/16 03:50:10;;;;;;;6.57;2.00;;;19.90;47.20;;;;;;5020723;28;20485;-74
2022/07/16 03:52:36;;;;;;;5.88;1.80;;;19.80;47.20;;;;;;5020020;28;20056;-74
2022/07/16 03:55:01;;;;;;;6.38;1.90;;;19.80;47.20;;;;;;5024782;28;20061;-74
2022/07/16 03:57:27;;;;;;;4.35;1.92;;;19.80;47.20;;;;;;5024918;28;20102;-75
2022/07/16 03:59:53;;;;;;;5.47;1.77;;;19.80;48.30;;;;;;5027131;28;20029;-74
2022/07/16 04:02:18;;;;;;;5.53;1.88;;;19.80;47.40;;;;;;5024532;28;20022;-74
2022/07/16 04:04:44;;;;;;;5.50;1.80;;;19.80;47.40;;;;;;5021902;28;20501;-74
2022/07/16 04:07:10;;;;;;;4.93;1.80;;;19.70;47.30;;;;;;5030913;28;20431;-74
2022/07/16 04:09:35;;;;;;;3.92;1.90;;;19.70;47.60;;;;;;5030644;28;20033;-73
2022/07/16 04:12:01;;;;;;;5.55;1.90;;;19.60;47.80;;;;;;5026076;28;20496;-74
2022/07/16 04:14:27;;;;;;;4.38;1.77;;;19.50;47.90;;;;;;5020440;28;20041;-74
2022/07/16 04:16:52;;;;;;;5.35;1.63;;;19.50;47.80;;;;;;5014649;28;20285;-74
2022/07/16 04:19:18;;;;;;;7.07;1.80;;;19.40;47.90;;;;;;5035793;28;20459;-74
2022/07/16 04:21:44;;;;;;;7.20;2.00;;;19.30;47.90;;;;;;5023339;28;20033;-74
2022/07/16 04:24:09;;;;;;;9.00;1.90;;;19.30;48.00;;;;;;5023484;28;20699;-74
2022/07/16 04:26:35;;;;;;;7.13;2.13;;;19.30;48.20;;;;;;5017509;28;20045;-74
2022/07/16 04:29:01;;;;;;;5.10;2.00;;;19.20;48.50;;;;;;5024436;28;20045;-74
2022/07/16 04:31:26;;;;;;;4.43;1.85;;;19.20;48.80;;;;;;5024428;28;20038;-74
2022/07/16 04:33:52;;;;;;;5.97;1.92;;;19.20;49.00;;;;;;5026937;28;20152;-74
2022/07/16 04:36:18;;;;;;;6.13;1.80;;;19.20;49.20;;;;;;5017362;28;20407;-73
2022/07/16 04:38:44;;;;;;;5.03;2.00;;;19.10;49.30;;;;;;5022447;28;20346;-74
2022/07/16 04:41:09;;;;;;;6.07;2.20;;;19.10;49.60;;;;;;5013215;28;20810;-73
2022/07/16 04:43:35;;;;;;;5.90;2.13;;;19.10;49.50;;;;;;5023837;28;20053;-73
2022/07/16 04:46:01;;;;;;;6.15;2.00;;;19.00;49.60;;;;;;5027514;28;20481;-74
2022/07/16 04:48:27;;;;;;;6.85;2.00;;;19.00;49.60;;;;;;5034742;28;20098;-74
2022/07/16 04:50:52;;;;;;;6.13;1.63;;;19.00;49.70;;;;;;5018991;28;20041;-74
2022/07/16 04:53:18;;;;;;;7.15;2.42;;;19.00;49.80;;;;;;5028066;28;20536;-74
2022/07/16 04:55:44;;;;;;;5.28;2.13;;;19.00;49.70;;;;;;5021984;28;20104;-73
2022/07/16 04:58:10;;;;;;;3.90;1.83;;;19.00;49.60;;;;;;5022083;28;20026;-74
2022/07/16 05:00:35;;;;;;;6.35;1.90;;;19.00;49.60;;;;;;5019106;28;20034;-74
2022/07/16 05:03:01;;;;;;;8.15;2.10;;;19.00;49.60;;;;;;5034045;28;20120;-74
2022/07/16 05:05:31;;;;;;;5.68;1.90;;;19.10;49.80;;;;;;5017236;28;20433;-74
2022/07/16 05:07:57;;;;;;;11.27;2.20;;;19.10;50.10;;;;;;5022834;28;20018;-74
2022/07/16 05:10:24;;;;;;;6.63;2.35;;;19.10;50.20;;;;;;5031069;28;20054;-74
2022/07/16 05:12:50;;;;;;;5.78;2.13;;;19.10;50.30;;;;;;5030474;28;20059;-74
2022/07/16 05:15:16;;;;;;;5.55;2.08;;;19.10;50.30;;;;;;5026087;28;20041;-76
2022/07/16 05:17:42;;;;;;;5.50;2.03;;;19.20;50.40;;;;;;5030220;28;20204;-76
2022/07/16 05:20:09;;;;;;;7.13;2.10;;;19.20;50.50;;;;;;5024718;28;20112;-75
2022/07/16 05:22:34;;;;;;;5.03;2.20;;;19.20;50.60;;;;;;5013277;28;20041;-74
2022/07/16 05:25:00;;;;;;;6.72;2.15;;;19.30;51.10;;;;;;5029652;28;20497;-74
2022/07/16 05:27:26;;;;;;;4.47;2.22;;;19.30;51.20;;;;;;5026894;28;20029;-74
2022/07/16 05:29:51;;;;;;;5.95;1.98;;;19.30;51.20;;;;;;5023997;28;20373;-74
2022/07/16 05:32:17;;;;;;;9.50;2.25;;;19.40;51.30;;;;;;5025723;28;20032;-74
2022/07/16 05:34:43;;;;;;;5.97;2.00;;;19.40;51.30;;;;;;5024719;28;20497;-74
2022/07/16 05:37:08;;;;;;;6.53;2.13;;;19.50;51.20;;;;;;5013714;28;20439;-75
2022/07/16 05:39:34;;;;;;;5.88;1.85;;;19.60;51.10;;;;;;5029572;28;20041;-73
2022/07/16 05:42:00;;;;;;;8.18;2.03;;;19.60;50.80;;;;;;5015902;28;20205;-74
2022/07/16 05:44:25;;;;;;;5.80;1.90;;;19.70;50.30;;;;;;5018393;28;20041;-76
2022/07/16 05:46:52;;;;;;;7.35;1.80;;;19.70;49.90;;;;;;5030791;28;20480;-74
2022/07/16 05:49:18;;;;;;;6.05;2.00;;;19.70;49.50;;;;;;5025924;28;20381;-74
2022/07/16 05:51:43;;;;;;;7.53;2.35;;;19.80;49.30;;;;;;5043169;28;20052;-74
2022/07/16 05:54:09;;;;;;;7.30;2.25;;;19.80;49.00;;;;;;5028303;28;20021;-75
2022/07/16 05:56:35;;;;;;;6.10;1.98;;;19.90;49.10;;;;;;5029830;28;20538;-75
2022/07/16 05:59:02;;;;;;;5.53;1.80;;;20.00;48.70;;;;;;5024891;28;20041;-74
2022/07/16 06:01:31;;;;;;;4.95;1.73;;;20.10;48.60;;;;;;5029275;28;20029;-75
2022/07/16 06:03:57;;;;;;;6.45;2.13;;;20.20;48.40;;;;;;5024065;28;20047;-75
2022/07/16 06:06:23;;;;;;;6.78;1.75;;;20.30;48.00;;;;;;5014304;28;20402;-75
2022/07/16 06:08:49;;;;;;;5.07;1.77;;;20.40;47.80;;;;;;5024680;28;20441;-75
2022/07/16 06:11:15;;;;;;;6.28;1.88;;;20.50;47.50;;;;;;5023333;28;20034;-76
2022/07/16 06:13:41;;;;;;;7.20;1.90;;;20.70;47.10;;;;;;5028780;28;20401;-74
2022/07/16 06:16:07;;;;;;;5.10;1.70;;;20.80;46.50;;;;;;5022321;28;20034;-76
2022/07/16 06:18:38;;;;;;;4.57;1.77;;;21.00;46.00;;;;;;5030710;28;20112;-77
2022/07/16 06:21:04;;;;;;;5.50;1.90;;;21.20;45.40;;;;;;5023683;28;20030;-75
2022/07/16 06:23:30;;;;;;;7.63;1.85;;;21.50;44.90;;;;;;5024423;28;20038;-75
2022/07/16 06:25:56;;;;;;;4.65;1.60;;;21.60;44.40;;;;;;5026561;28;20034;-75
2022/07/16 06:28:21;;;;;;;4.43;1.80;;;21.80;43.60;;;;;;5013618;28;20026;-75
2022/07/16 06:30:47;;;;;;;5.10;1.70;;;22.00;43.00;;;;;;5031669;28;20084;-74
2022/07/16 06:33:13;;;;;;;6.03;1.80;;;22.20;42.00;;;;;;5013713;28;20025;-76
2022/07/16 06:35:38;;;;;;;6.40;1.48;;;22.50;41.50;;;;;;5021280;28;20033;-76
2022/07/16 06:38:04;;;;;;;3.75;1.50;;;22.60;41.00;;;;;;5025883;28;20029;-73
2022/07/16 06:40:30;;;;;;;7.97;3.33;;;22.90;40.30;;;;;;5026820;28;20044;-73
2022/07/16 06:42:56;;;;;;;7.88;1.80;;;23.10;39.40;;;;;;5027512;28;20049;-73
2022/07/16 06:45:22;;;;;;;5.10;1.80;;;23.30;37.80;;;;;;5030225;28;20556;-73
2022/07/16 06:47:48;;;;;;;4.47;1.60;;;23.50;37.30;;;;;;5019857;28;20159;-73
2022/07/16 06:50:14;;;;;;;3.92;1.60;;;23.70;36.90;;;;;;5024973;28;20126;-73
2022/07/16 06:52:40;;;;;;;4.97;2.25;;;25.60;39.30;;;;;;5028912;28;20064;-74
2022/07/16 06:55:06;;;;;;;3.58;1.50;;;24.30;35.60;;;;;;5023651;28;20112;-74
2022/07/16 06:57:32;;;;;;;4.63;1.63;;;25.10;33.90;;;;;;5027162;28;20040;-74
2022/07/16 06:59:58;;;;;;;6.65;1.90;;;26.00;32.20;;;;;;5024997;28;20025;-76
2022/07/16 07:02:23;;;;;;;5.57;1.48;;;26.80;29.50;;;;;;5023472;28;20032;-74
2022/07/16 07:04:49;;;;;;;4.93;1.67;;;28.20;27.80;;;;;;5028249;28;20037;-73
2022/07/16 07:07:15;;;;;;;6.80;1.50;;;28.60;27.10;;;;;;5026142;28;20030;-73
2022/07/16 07:09:41;;;;;;;11.75;1.80;;;29.00;26.70;;;;;;5027002;28;20111;-74
2022/07/16 07:12:06;;;;;;;7.72;1.55;;;29.10;26.50;;;;;;5023645;28;20678;-74
2022/07/16 07:14:32;;;;;;;3.95;1.40;;;29.50;25.70;;;;;;5018459;28;20485;-73
2022/07/16 07:16:58;;;;;;;3.97;1.20;;;30.10;24.80;;;;;;5019066;28;20090;-72
2022/07/16 07:19:23;;;;;;;4.53;1.27;;;30.50;24.20;;;;;;5024938;28;20040;-71
2022/07/16 07:21:49;;;;;;;6.47;1.50;;;30.80;24.00;;;;;;5013841;28;20540;-71
2022/07/16 07:24:15;;;;;;;5.68;1.33;;;31.20;23.40;;;;;;5028468;28;20151;-71
2022/07/16 07:26:40;;;;;;;4.25;1.30;;;31.60;23.10;;;;;;5021682;28;20026;-73
2022/07/16 07:29:06;;;;;;;3.50;1.30;;;31.90;22.70;;;;;;5024122;28;20545;-71
2022/07/16 07:31:32;;;;;;;3.40;1.20;;;32.10;22.40;;;;;;5030202;28;20049;-72
2022/07/16 07:33:58;;;;;;;4.65;1.30;;;32.40;21.60;;;;;;5025932;28;20033;-72
2022/07/16 07:36:23;;;;;;;5.35;1.23;;;32.70;21.50;;;;;;5029132;28;20041;-72
2022/07/16 07:38:49;;;;;;;4.70;1.20;;;32.90;21.10;;;;;;5024784;28;20021;-72
2022/07/16 07:41:15;;;;;;;6.75;1.42;;;33.30;20.70;;;;;;5021365;28;20045;-73
2022/07/16 07:43:40;;;;;;;4.50;1.20;;;33.70;20.30;;;;;;5025061;28;20099;-73
2022/07/16 07:46:06;;;;;;;6.20;1.30;;;34.00;19.60;;;;;;5022962;28;20034;-72
2022/07/16 07:48:33;;;;;;;5.10;1.10;;;33.90;19.70;;;;;;5013051;28;20041;-72
2022/07/16 07:50:59;;;;;;;4.28;1.30;;;33.50;20.10;;;;;;5017483;28;20045;-73
2022/07/16 07:53:24;;;;;;;3.50;1.30;;;33.10;20.40;;;;;;5016658;28;20084;-72
2022/07/16 07:55:50;;;;;;;4.18;1.30;;;32.60;20.60;;;;;;5018064;28;20033;-73
2022/07/16 07:58:16;;;;;;;3.22;1.13;;;32.00;21.30;;;;;;5035079;28;20021;-74
2022/07/16 08:00:42;;;;;;;4.57;1.30;;;31.50;22.30;;;;;;5026601;28;20547;-73
2022/07/16 08:03:09;;;;;;;4.88;1.40;;;31.00;22.90;;;;;;5032841;28;20029;-72
2022/07/16 08:05:34;;;;;;;6.22;1.30;;;30.70;23.30;;;;;;5024863;28;20029;-73
2022/07/16 08:08:00;;;;;;;3.53;1.10;;;30.40;23.30;;;;;;5022503;28;20024;-74
2022/07/16 08:10:26;;;;;;;3.13;1.20;;;30.30;23.70;;;;;;5025208;28;20107;-72
2022/07/16 08:12:52;;;;;;;6.13;1.27;;;30.20;23.60;;;;;;5027127;28;20538;-74
2022/07/16 08:15:17;;;;;;;5.22;1.30;;;30.00;24.00;;;;;;5026051;28;20071;-76
2022/07/16 08:17:43;;;;;;;5.07;1.20;;;29.90;24.30;;;;;;5022155;28;20040;-74
2022/07/16 08:20:10;;;;;;;3.67;1.20;;;29.90;24.40;;;;;;5018379;28;20041;-74
2022/07/16 08:22:36;;;;;;;6.70;1.38;;;29.80;24.50;;;;;;5009992;28;20092;-74
2022/07/16 08:27:46;;;;;;;3.40;1.10;;;29.80;24.40;;;;;;5030925;28;20864;-75
2022/07/16 08:30:12;;;;;;;4.82;1.10;;;29.80;24.70;;;;;;5025237;28;20037;-74
2022/07/16 08:32:38;;;;;;;6.35;1.20;;;29.80;24.80;;;;;;5026749;28;20029;-72
2022/07/16 08:35:04;;;;;;;3.85;1.30;;;29.80;24.60;;;;;;5017282;28;20030;-76
2022/07/16 08:37:42;;;;;;;3.75;1.30;;;29.90;24.70;;;;;;5021560;28;20033;-73
2022/07/16 08:40:11;;;;;;;4.32;1.35;;;29.90;24.70;;;;;;5022009;28;20033;-73
2022/07/16 08:42:38;;;;;;;4.45;1.20;;;29.90;24.80;;;;;;5026285;28;20079;-79
2022/07/16 08:45:05;;;;;;;5.05;1.30;;;29.90;24.90;;;;;;5016190;28;20041;-76
2022/07/16 08:47:32;;;;;;;4.63;1.38;;;30.00;24.70;;;;;;5021429;28;20033;-74
2022/07/16 08:50:08;;;;;;;3.10;1.30;;;30.10;24.50;;;;;;5024298;28;20025;-75
2022/07/16 08:52:44;;;;;;;4.07;1.27;;;30.20;24.60;;;;;;5011320;28;20038;-75
2022/07/16 08:55:10;;;;;;;3.50;1.00;;;30.30;24.60;;;;;;5028300;28;20141;-77
2022/07/16 08:57:38;;;;;;;4.55;1.30;;;30.60;24.60;;;;;;5022718;28;20522;-74
2022/07/16 09:00:08;;;;;;;5.95;1.30;;;30.80;24.20;;;;;;5024288;28;20113;-75
2022/07/16 09:02:35;;;;;;;4.80;1.23;;;31.10;23.70;;;;;;5023237;28;20489;-77
2022/07/16 09:05:01;;;;;;;5.43;1.30;;;31.30;23.90;;;;;;5020712;28;20037;-75
2022/07/16 09:07:26;;;;;;;3.40;1.20;;;31.60;23.40;;;;;;5032941;28;20017;-75
2022/07/16 09:09:52;;;;;;;3.97;1.30;;;31.90;23.20;;;;;;5031406;28;20014;-76
2022/07/16 09:12:37;;;;;;;5.43;1.40;;;32.10;23.20;;;;;;5027381;28;20506;-75
2022/07/16 09:15:39;;;;;;;3.60;1.30;;;32.40;22.90;;;;;;5021518;28;20033;-76
2022/07/16 09:18:21;;;;;;;4.35;1.30;;;32.70;22.40;;;;;;5016932;28;20618;-76
2022/07/16 09:20:53;;;;;;;4.03;1.20;;;33.00;22.10;;;;;;5023207;28;20141;-77
2022/07/16 09:23:25;;;;;;;5.68;1.40;;;33.40;22.00;;;;;;5019195;28;20200;-76
2022/07/16 09:25:58;;;;;;;5.03;1.33;;;33.80;21.60;;;;;;5019844;28;20128;-80
2022/07/16 09:28:26;;;;;;;5.10;1.40;;;34.30;20.80;;;;;;5024631;28;20033;-75
2022/07/16 09:30:52;;;;;;;5.15;1.30;;;34.90;20.00;;;;;;5004243;28;20458;-75
2022/07/16 09:33:23;;;;;;;3.92;1.30;;;35.60;19.40;;;;;;5018399;28;20059;-78
2022/07/16 09:36:07;;;;;;;7.75;1.60;;;36.40;18.40;;;;;;5022510;28;20037;-79
2022/07/16 09:38:50;;;;;;;3.60;1.50;;;37.20;18.00;;;;;;5017688;28;20037;-74
2022/07/16 09:41:17;;;;;;;23.85;1.98;;;37.80;16.90;;;;;;5022184;28;20820;-76
2022/07/16 09:43:43;;;;;;;6.82;1.40;;;38.30;16.60;;;;;;5018565;28;20049;-75
2022/07/16 09:46:18;;;;;;;6.68;1.52;;;38.60;15.90;;;;;;5014502;28;20040;-77
2022/07/16 09:48:44;;;;;;;6.88;1.70;;;39.00;15.80;;;;;;5021403;28;20025;-74
2022/07/16 09:51:25;;;;;;;4.80;1.23;;;39.30;15.40;;;;;;5020952;28;20041;-78
2022/07/16 09:53:52;;;;;;;6.57;1.40;;;39.60;15.60;;;;;;5019365;28;20037;-80
2022/07/16 09:56:26;;;;;;;4.93;1.23;;;40.10;15.40;;;;;;5022196;28;20029;-74
2022/07/16 09:58:54;;;;;;;8.25;1.25;;;40.40;14.80;;;;;;5013836;28;20036;-76
2022/07/16 10:01:21;;;;;;;6.40;1.30;;;40.60;14.80;;;;;;5021818;28;20021;-75
2022/07/16 10:03:48;;;;;;;8.43;1.42;;;40.90;14.40;;;;;;5027678;28;20087;-75
2022/07/16 10:06:15;;;;;;;7.78;1.73;;;41.20;14.40;;;;;;5024920;28;20024;-74
2022/07/16 10:08:43;;;;;;;4.22;1.23;;;41.60;14.40;;;;;;5026816;28;20036;-74
2022/07/16 10:11:10;;;;;;;5.40;1.30;;;42.00;14.00;;;;;;5020971;28;20460;-73
2022/07/16 10:13:37;;;;;;;4.53;1.10;;;42.30;13.80;;;;;;5023322;28;20121;-73
2022/07/16 10:16:04;;;;;;;5.40;1.30;;;42.70;13.50;;;;;;5021330;28;20021;-73
2022/07/16 10:18:41;;;;;;;4.25;1.20;;;43.00;13.10;;;;;;5024282;28;20036;-73
2022/07/16 10:21:15;;;;;;;7.43;1.40;;;43.00;13.00;;;;;;5019232;28;20027;-75
2022/07/16 10:23:47;;;;;;;3.50;1.20;;;43.20;13.10;;;;;;5024922;28;20497;-74
2022/07/16 10:26:21;;;;;;;4.15;1.20;;;43.40;13.00;;;;;;5022817;28;20065;-76
2022/07/16 10:28:54;;;;;;;6.75;1.20;;;43.60;13.40;;;;;;5020538;28;20033;-78
2022/07/16 10:32:26;;;;;;;3.95;1.20;;;44.10;12.40;;;;;;5023970;28;20041;-80
2022/07/16 10:34:35;;;;;;;5.15;1.30;;;44.50;12.00;;;;;;5026800;28;20030;-73
2022/07/16 10:37:02;;;;;;;4.72;1.30;;;44.90;11.70;;;;;;5029284;28;20052;-82
2022/07/16 10:39:28;;;;;;;6.78;1.30;;;45.10;11.60;;;;;;5034070;28;20071;-80
2022/07/16 10:42:02;;;;;;;4.63;1.10;;;45.20;11.60;;;;;;5024113;28;20026;-80
2022/07/16 10:44:53;;;;;;;4.43;1.20;;;45.50;11.30;;;;;;5028764;28;20049;-79
2022/07/16 10:47:19;;;;;;;5.10;1.25;;;45.70;11.20;;;;;;5018070;28;20512;-80
2022/07/16 10:49:45;;;;;;;7.80;1.20;;;45.80;11.10;;;;;;5023923;28;20029;-74
2022/07/16 10:52:16;;;;;;;5.63;1.30;;;45.90;10.90;;;;;;5022256;28;20049;-74
2022/07/16 10:54:50;;;;;;;3.42;1.20;;;46.00;10.80;;;;;;5017429;28;20129;-77
2022/07/16 10:57:17;;;;;;;7.18;1.15;;;46.10;10.80;;;;;;5037722;28;20026;-75
2022/07/16 10:59:46;;;;;;;6.30;1.20;;;46.10;10.60;;;;;;5021285;28;20033;-77
2022/07/16 11:02:17;;;;;;;4.47;1.00;;;46.10;10.70;;;;;;5022315;28;20034;-78
2022/07/16 11:04:48;;;;;;;2.75;1.00;;;46.20;10.60;;;;;;5021618;28;20462;-75
2022/07/16 11:07:18;;;;;;;3.70;1.10;;;46.30;10.60;;;;;;5027435;28;20068;-76
2022/07/16 11:09:46;;;;;;;6.78;1.23;;;46.40;10.50;;;;;;5030028;28;20512;-75
2022/07/16 11:12:19;;;;;;;2.60;0.90;;;46.60;10.40;;;;;;5021803;28;20025;-77
2022/07/16 11:14:50;;;;;;;7.82;1.40;;;46.60;10.20;;;;;;5015079;28;20041;-76
2022/07/16 11:17:17;;;;;;;5.68;1.30;;;46.50;10.50;;;;;;5019853;28;20399;-77
2022/07/16 11:19:48;;;;;;;4.75;1.10;;;46.40;10.60;;;;;;5024388;28;20030;-74
2022/07/16 11:22:22;;;;;;;5.68;1.10;;;46.50;10.00;;;;;;5024242;28;20042;-79
2022/07/16 11:24:56;;;;;;;3.75;1.10;;;46.70;10.00;;;;;;5031976;28;20033;-79
2022/07/16 11:27:27;;;;;;;8.40;1.38;;;46.70;10.40;;;;;;5024781;28;20052;-78
2022/07/16 11:29:58;;;;;;;3.65;1.20;;;46.80;10.20;;;;;;5020872;28;20567;-75
2022/07/16 11:32:24;;;;;;;3.75;1.00;;;46.80;10.00;;;;;;5028698;28;20102;-80
2022/07/16 11:34:49;;;;;;;3.63;1.10;;;46.80;10.10;;;;;;5026083;28;20029;-76
2022/07/16 11:37:15;;;;;;;5.78;1.10;;;46.70;10.00;;;;;;5025797;28;20033;-77
2022/07/16 11:39:42;;;;;;;6.47;1.10;;;46.70;10.40;;;;;;5023530;28;20104;-75
2022/07/16 11:42:08;;;;;;;3.63;1.10;;;46.60;10.40;;;;;;5031539;28;20107;-79
2022/07/16 11:44:37;;;;;;;5.97;1.00;;;46.40;10.10;;;;;;5020696;28;20037;-78
2022/07/16 11:47:05;;;;;;;3.13;1.10;;;46.30;10.60;;;;;;5019924;28;20026;-78
2022/07/16 11:49:42;;;;;;;5.47;1.10;;;46.40;10.30;;;;;;5013407;28;20034;-78
2022/07/16 11:52:24;;;;;;;3.83;1.00;;;46.50;10.30;;;;;;5021391;28;20099;-77
2022/07/16 11:54:53;;;;;;;5.47;1.20;;;46.60;10.10;;;;;;5024081;28;20049;-77
2022/07/16 11:57:19;;;;;;;5.60;1.10;;;46.50;10.40;;;;;;5012492;28;20512;-79
2022/07/16 11:59:48;;;;;;;4.47;1.10;;;46.40;10.40;;;;;;5023183;28;20473;-78
2022/07/16 12:02:18;;;;;;;3.88;1.10;;;46.50;9.90;;;;;;5025861;28;20029;-79
2022/07/16 12:04:58;;;;;;;6.30;1.10;;;46.50;10.00;;;;;;5020857;28;20169;-78
2022/07/16 12:07:24;;;;;;;4.95;1.05;;;46.60;10.00;;;;;;5023239;28;20033;-76
2022/07/16 12:09:51;;;;;;;5.72;1.08;;;46.50;9.80;;;;;;5017146;28;20034;-79
2022/07/16 12:12:28;;;;;;;4.00;0.98;;;46.50;10.20;;;;;;5017042;28;20060;-77
2022/07/16 12:15:03;;;;;;;7.80;1.00;;;46.60;10.10;;;;;;5014335;28;20152;-78
2022/07/16 12:17:31;;;;;;;2.33;0.93;;;46.70;10.10;;;;;;5016893;28;20041;-79
2022/07/16 12:20:34;;;;;;;3.35;1.00;;;46.90;10.00;;;;;;5022950;28;20030;-77
2022/07/16 12:23:00;;;;;;;3.88;1.10;;;46.90;9.70;;;;;;5012528;28;20052;-80
2022/07/16 12:25:33;;;;;;;7.20;1.17;;;46.60;9.90;;;;;;5024621;28;20033;-81
2022/07/16 12:28:19;;;;;;;2.88;1.20;;;46.30;10.30;;;;;;5019104;28;20097;-80
2022/07/16 12:30:52;;;;;;;4.72;1.17;;;46.40;10.20;;;;;;5021996;28;20505;-80
2022/07/16 12:33:23;;;;;;;3.80;1.13;;;46.40;10.20;;;;;;5022093;28;20026;-81
2022/07/16 12:36:09;;;;;;;4.30;1.23;;;46.60;10.20;;;;;;5022363;28;20026;-81
2022/07/16 12:39:04;;;;;;;4.30;1.30;;;46.70;10.00;;;;;;5023584;28;21686;-81
2022/07/16 12:41:45;;;;;;;4.50;1.30;;;46.30;9.90;;;;;;5022020;28;20045;-79
2022/07/16 12:44:12;;;;;;;8.70;1.33;;;46.10;10.00;;;;;;5051756;28;20029;-82
2022/07/16 12:46:46;;;;;;;3.22;0.98;;;46.00;10.10;;;;;;5013520;28;20040;-81
2022/07/16 12:49:14;;;;;;;4.78;1.10;;;46.00;10.20;;;;;;5019214;28;20017;-80
2022/07/16 12:51:49;;;;;;;3.92;1.05;;;46.10;10.40;;;;;;5024512;28;20046;-80
2022/07/16 12:54:16;;;;;;;4.40;1.30;;;46.10;10.10;;;;;;5019610;28;20044;-78
2022/07/16 12:59:29;;;;;;;4.63;1.23;;;45.80;10.30;;;;;;5012271;28;20037;-76
2022/07/16 13:01:55;;;;;;;8.73;1.20;;;45.70;10.40;;;;;;5017301;28;20045;-78